Time;durP1;ratioP1;P1;durP2;ratioP2;P2;SDS_P1;SDS_P2;PMS_P1;PMS_P2;Temp;Humidity;BMP_temperature;BMP_pressure;BME280_temperature;BME280_humidity;BME280_pressure;Samples;Min_cycle;Max_cycle;Signal;HPM_P1;HPM_P2
2021/04/06 00:01:40;;;;;;;13.00;9.07;;;;;;;4.33;89.69;94935.44;4971815;28;20254;-61
2021/04/06 00:04:11;;;;;;;13.20;9.73;;;;;;;4.34;90.12;94931.09;4971880;28;20690;-62
2021/04/06 00:06:42;;;;;;;11.07;8.37;;;;;;;4.41;89.87;94915.34;4971940;28;20276;-61
2021/04/06 00:09:15;;;;;;;13.27;8.17;;;;;;;4.54;88.58;94917.31;4971732;28;20712;-62
2021/04/06 00:11:44;;;;;;;10.53;8.03;;;;;;;4.50;89.01;94911.94;4971809;28;20639;-61
2021/04/06 00:14:14;;;;;;;14.37;10.03;;;;;;;4.61;88.73;94910.06;4971585;28;20228;-61
2021/04/06 00:16:42;;;;;;;18.83;11.40;;;;;;;4.63;88.69;94908.00;4971699;28;20196;-61
2021/04/06 00:19:10;;;;;;;17.87;11.00;;;;;;;4.69;88.74;94904.31;4971853;28;20211;-61
2021/04/06 00:21:38;;;;;;;12.57;8.87;;;;;;;4.74;87.47;94902.47;4971217;28;20223;-61
2021/04/06 00:24:08;;;;;;;11.33;7.77;;;;;;;4.74;87.65;94894.00;4971846;28;20579;-61
2021/04/06 00:26:46;;;;;;;12.93;7.70;;;;;;;4.68;88.04;94884.78;4971683;28;20208;-59
2021/04/06 00:29:15;;;;;;;12.60;9.23;;;;;;;4.68;88.39;94877.06;4971723;28;20642;-61
2021/04/06 00:31:44;;;;;;;11.30;8.80;;;;;;;4.69;87.92;94870.88;4972213;28;20696;-61
2021/04/06 00:34:12;;;;;;;15.10;10.13;;;;;;;4.71;87.36;94863.66;4971803;28;20667;-62
2021/04/06 00:36:40;;;;;;;12.10;8.63;;;;;;;4.63;88.71;94859.13;4971729;28;20200;-61
2021/04/06 00:39:08;;;;;;;14.70;10.10;;;;;;;4.66;88.40;94854.19;4971476;28;20741;-62
2021/04/06 00:41:37;;;;;;;14.10;9.20;;;;;;;4.67;88.19;94848.00;4971835;28;20626;-61
2021/04/06 00:44:12;;;;;;;18.00;10.90;;;;;;;4.72;88.00;94852.34;4971516;28;20672;-61
2021/04/06 00:46:45;;;;;;;21.17;11.90;;;;;;;4.63;88.51;94846.25;4971504;28;20290;-61
2021/04/06 00:49:13;;;;;;;18.27;10.87;;;;;;;4.54;88.75;94853.75;4971460;28;20238;-61
2021/04/06 00:51:41;;;;;;;16.00;10.37;;;;;;;4.47;88.63;94847.41;4971414;28;20192;-61
2021/04/06 00:54:09;;;;;;;13.37;9.30;;;;;;;4.43;89.47;94851.56;4971593;28;20195;-62
2021/04/06 00:56:39;;;;;;;19.30;12.03;;;;;;;4.39;89.14;94853.88;4971627;28;20306;-61
2021/04/06 00:59:08;;;;;;;15.20;9.70;;;;;;;4.45;88.86;94844.31;4971421;28;20255;-62
2021/04/06 01:01:37;;;;;;;13.90;9.30;;;;;;;4.49;89.59;94840.16;4971556;28;20212;-61
2021/04/06 01:04:07;;;;;;;13.97;9.80;;;;;;;4.50;89.02;94841.72;4973173;28;20203;-61
2021/04/06 01:06:52;;;;;;;20.80;12.20;;;;;;;4.61;88.05;94832.88;4975465;28;20283;-60
2021/04/06 01:09:29;;;;;;;15.50;9.13;;;;;;;4.45;89.05;94826.31;4975138;28;20702;-61
2021/04/06 01:11:56;;;;;;;21.60;11.73;;;;;;;4.31;88.63;94824.38;4975219;28;20250;-61
2021/04/06 01:14:24;;;;;;;15.33;10.17;;;;;;;4.42;89.22;94829.44;4975067;28;20255;-63
2021/04/06 01:16:51;;;;;;;22.23;11.00;;;;;;;4.29;88.49;94830.81;4975484;28;20203;-63
2021/04/06 01:19:19;;;;;;;19.40;10.97;;;;;;;4.15;89.77;94838.38;4975357;28;20192;-62
2021/04/06 01:21:47;;;;;;;18.20;10.77;;;;;;;4.05;90.20;94835.91;4974750;28;21970;-62
2021/04/06 01:24:15;;;;;;;19.43;10.87;;;;;;;4.06;90.84;94834.09;4975010;28;20196;-62
2021/04/06 01:26:43;;;;;;;22.30;11.87;;;;;;;4.21;89.73;94831.41;4974906;28;20196;-62
2021/04/06 01:29:10;;;;;;;40.67;18.53;;;;;;;4.05;91.09;94829.97;4974892;28;20644;-63
2021/04/06 01:31:37;;;;;;;22.70;11.13;;;;;;;3.97;91.08;94830.56;4974892;28;20208;-61
2021/04/06 01:34:04;;;;;;;14.17;9.20;;;;;;;3.87;91.35;94818.56;4974853;28;20254;-62
2021/04/06 01:36:31;;;;;;;15.97;9.70;;;;;;;3.93;92.02;94812.34;4974909;28;20199;-62
2021/04/06 01:38:59;;;;;;;14.30;9.13;;;;;;;4.07;91.35;94807.34;4974774;28;20235;-62
2021/04/06 01:41:27;;;;;;;15.03;9.07;;;;;;;4.11;90.77;94808.34;4974727;28;20633;-62
2021/04/06 01:43:55;;;;;;;12.23;7.93;;;;;;;4.08;91.79;94808.91;4974983;28;20693;-62
2021/04/06 01:46:31;;;;;;;10.90;8.03;;;;;;;4.10;91.21;94815.28;4974535;28;20200;-62
2021/04/06 01:48:59;;;;;;;11.87;8.43;;;;;;;4.04;90.91;94810.44;4974519;28;20289;-62
2021/04/06 01:51:26;;;;;;;10.70;8.10;;;;;;;3.95;91.57;94804.34;4974794;28;20211;-63
2021/04/06 01:53:54;;;;;;;10.77;7.80;;;;;;;4.02;91.10;94800.44;4974465;28;20212;-61
2021/04/06 01:56:26;;;;;;;9.90;7.30;;;;;;;3.99;91.51;94795.84;4974660;28;20282;-62
2021/04/06 01:59:01;;;;;;;11.53;7.87;;;;;;;4.01;91.81;94790.44;4974594;28;20663;-61
2021/04/06 02:01:29;;;;;;;10.10;7.27;;;;;;;4.05;91.46;94799.13;4974433;28;20204;-66
2021/04/06 02:04:00;;;;;;;10.17;7.33;;;;;;;4.06;91.17;94795.53;4973930;28;20212;-61
2021/04/06 02:06:29;;;;;;;11.50;7.30;;;;;;;4.08;91.11;94796.81;4974138;28;20207;-62
2021/04/06 02:08:58;;;;;;;10.90;7.87;;;;;;;4.06;92.13;94793.72;4974275;28;20191;-62
2021/04/06 02:11:27;;;;;;;12.77;8.20;;;;;;;4.09;91.44;94785.47;4974097;28;20294;-62
2021/04/06 02:14:04;;;;;;;11.60;8.53;;;;;;;4.12;91.08;94795.22;4974314;28;20208;-61
2021/04/06 02:16:45;;;;;;;10.87;8.10;;;;;;;3.98;91.22;94793.56;4974045;28;20200;-61
2021/04/06 02:19:29;;;;;;;11.13;8.27;;;;;;;4.08;90.96;94796.81;4974005;28;20200;-61
2021/04/06 02:21:59;;;;;;;11.50;8.80;;;;;;;3.84;91.35;94788.22;4973713;28;20294;-61
2021/04/06 02:24:33;;;;;;;11.77;8.20;;;;;;;3.78;91.22;94789.31;4974243;28;20671;-62
2021/04/06 02:27:19;;;;;;;15.23;9.30;;;;;;;3.56;92.33;94786.38;4973874;28;20678;-61
2021/04/06 02:29:50;;;;;;;17.93;9.40;;;;;;;3.57;91.74;94783.53;4973770;28;20238;-62
2021/04/06 02:32:19;;;;;;;18.23;10.47;;;;;;;3.49;91.11;94785.91;4973780;28;20592;-60
2021/04/06 02:34:48;;;;;;;13.37;8.70;;;;;;;3.36;91.24;94790.59;4973929;28;20203;-61
2021/04/06 02:37:17;;;;;;;13.37;8.60;;;;;;;3.28;90.06;94788.59;4973631;28;20206;-62
2021/04/06 02:39:45;;;;;;;19.50;8.93;;;;;;;3.17;90.80;94783.75;4973924;28;20249;-62
2021/04/06 02:42:23;;;;;;;19.83;9.63;;;;;;;3.11;91.73;94789.94;4973867;28;20195;-62
2021/04/06 02:44:55;;;;;;;14.87;9.80;;;;;;;3.11;92.13;94782.22;4973627;28;20199;-62
2021/04/06 02:47:23;;;;;;;17.03;9.47;;;;;;;3.09;91.68;94786.88;4973502;28;20204;-62
2021/04/06 02:49:51;;;;;;;16.87;9.97;;;;;;;3.06;93.53;94777.13;4973325;28;20322;-61
2021/04/06 02:52:18;;;;;;;14.93;9.17;;;;;;;3.11;93.93;94785.56;4973489;28;20212;-62
2021/04/06 02:54:45;;;;;;;15.63;9.90;;;;;;;3.10;93.92;94783.25;4973297;28;20809;-62
2021/04/06 02:57:23;;;;;;;15.40;9.37;;;;;;;3.12;94.25;94786.34;4973606;28;20196;-63
2021/04/06 02:59:53;;;;;;;15.00;9.57;;;;;;;3.12;94.71;94783.78;4973251;28;20679;-62
2021/04/06 03:02:21;;;;;;;18.43;9.87;;;;;;;3.16;93.93;94777.84;4973194;28;20691;-62
2021/04/06 03:04:49;;;;;;;21.63;12.03;;;;;;;3.16;94.41;94771.94;4973116;28;20215;-61
2021/04/06 03:07:20;;;;;;;22.83;12.47;;;;;;;3.04;94.89;94769.69;4973400;28;20239;-62
2021/04/06 03:09:52;;;;;;;29.80;15.10;;;;;;;3.10;94.79;94773.75;4972916;28;20227;-61
2021/04/06 03:12:20;;;;;;;16.13;10.53;;;;;;;3.10;94.93;94773.75;4972946;28;20620;-62
2021/04/06 03:14:48;;;;;;;17.33;10.33;;;;;;;3.06;94.79;94783.03;4972922;28;20653;-62
2021/04/06 03:17:17;;;;;;;20.80;11.23;;;;;;;3.03;94.56;94783.56;4972874;28;20204;-61
2021/04/06 03:19:44;;;;;;;18.97;10.50;;;;;;;3.04;94.59;94774.81;4973128;28;20855;-62
2021/04/06 03:22:12;;;;;;;15.03;9.63;;;;;;;3.00;93.30;94773.81;4972801;28;20271;-61
2021/04/06 03:24:40;;;;;;;16.10;9.97;;;;;;;2.89;93.85;94767.94;4972948;28;20204;-62
2021/04/06 03:27:09;;;;;;;21.20;12.40;;;;;;;2.86;93.23;94770.28;4972160;28;20211;-62
2021/04/06 03:29:36;;;;;;;21.10;12.40;;;;;;;2.59;92.49;94768.06;4972923;28;20231;-61
2021/04/06 03:32:04;;;;;;;28.03;13.70;;;;;;;2.59;92.80;94773.19;4972832;28;20200;-61
2021/04/06 03:34:33;;;;;;;22.87;12.47;;;;;;;2.54;92.96;94768.81;4972581;28;20249;-61
2021/04/06 03:37:03;;;;;;;21.20;11.97;;;;;;;2.50;94.62;94764.47;4972685;28;20713;-61
2021/04/06 03:39:32;;;;;;;25.63;11.93;;;;;;;2.50;94.19;94769.59;4972810;28;20211;-62
2021/04/06 03:42:00;;;;;;;23.40;12.13;;;;;;;2.38;94.68;94764.78;4972549;28;20200;-62
2021/04/06 03:44:30;;;;;;;20.43;11.77;;;;;;;2.30;93.84;94762.72;4972345;28;20196;-62
2021/04/06 03:46:59;;;;;;;36.87;18.10;;;;;;;2.25;93.32;94770.41;4972762;28;20196;-64
2021/04/06 03:49:27;;;;;;;64.83;36.13;;;;;;;2.32;94.82;94765.03;4972441;28;20290;-61
2021/04/06 03:51:58;;;;;;;56.63;34.70;;;;;;;2.32;96.56;94768.38;4972571;28;20195;-62
2021/04/06 03:54:40;;;;;;;70.10;39.63;;;;;;;2.35;96.65;94767.84;4972426;28;20686;-64
2021/04/06 03:57:35;;;;;;;48.60;27.40;;;;;;;2.16;96.49;94772.75;4972150;28;20206;-61
2021/04/06 04:00:05;;;;;;;14.03;9.53;;;;;;;1.90;93.49;94770.44;4972575;28;20636;-61
2021/04/06 04:02:32;;;;;;;23.83;15.30;;;;;;;1.82;94.75;94769.16;4972122;28;20248;-62
2021/04/06 04:05:00;;;;;;;20.50;12.67;;;;;;;1.90;94.98;94760.19;4972178;28;20207;-62
2021/04/06 04:07:28;;;;;;;27.47;16.67;;;;;;;1.95;95.95;94762.75;4972036;28;20326;-61
2021/04/06 04:09:55;;;;;;;41.90;27.13;;;;;;;2.03;97.07;94767.38;4971814;28;20238;-62
2021/04/06 04:12:22;;;;;;;34.93;24.73;;;;;;;1.92;97.66;94761.50;4972164;28;20201;-62
2021/04/06 04:14:48;;;;;;;37.23;24.30;;;;;;;1.96;98.43;94759.16;4971996;28;20200;-62
2021/04/06 04:17:16;;;;;;;32.33;21.27;;;;;;;1.88;98.19;94764.81;4971813;28;20192;-62
2021/04/06 04:19:43;;;;;;;33.23;21.73;;;;;;;1.94;96.81;94764.56;4971601;28;20278;-63
2021/04/06 04:22:10;;;;;;;34.77;21.50;;;;;;;2.10;97.55;94763.50;4971267;28;20302;-62
2021/04/06 04:24:40;;;;;;;39.47;23.73;;;;;;;2.39;97.26;94763.72;4971452;28;20267;-61
2021/04/06 04:27:08;;;;;;;35.10;24.00;;;;;;;2.71;97.10;94760.84;4971367;28;20243;-61
2021/04/06 04:29:34;;;;;;;35.43;22.63;;;;;;;2.76;97.17;94757.47;4971426;28;20733;-61
2021/04/06 04:32:02;;;;;;;33.87;21.73;;;;;;;2.79;95.54;94759.53;4970920;28;20191;-62
2021/04/06 04:34:29;;;;;;;35.63;20.97;;;;;;;2.42;95.04;94765.78;4971307;28;20283;-61
2021/04/06 04:36:56;;;;;;;33.20;20.47;;;;;;;2.74;94.71;94762.13;4971425;28;20265;-62
2021/04/06 04:39:23;;;;;;;35.57;21.57;;;;;;;3.01;93.29;94759.94;4970370;28;20223;-62
2021/04/06 04:41:53;;;;;;;47.13;25.47;;;;;;;3.19;92.09;94761.16;4971407;28;20290;-62
2021/04/06 04:44:20;;;;;;;36.27;22.27;;;;;;;3.27;91.70;94763.94;4971110;28;20680;-60
2021/04/06 04:46:51;;;;;;;34.93;21.60;;;;;;;2.98;92.03;94765.63;4971226;28;20643;-62
2021/04/06 04:49:18;;;;;;;35.00;20.40;;;;;;;2.86;94.25;94760.78;4970647;28;20234;-64
2021/04/06 04:51:45;;;;;;;31.20;19.50;;;;;;;3.04;94.48;94760.19;4971207;28;20203;-61
2021/04/06 04:54:17;;;;;;;29.47;17.90;;;;;;;3.13;94.24;94765.56;4971038;28;20200;-62
2021/04/06 04:56:44;;;;;;;24.17;16.10;;;;;;;3.25;95.27;94760.84;4971082;28;20240;-61
2021/04/06 04:59:13;;;;;;;26.80;15.10;;;;;;;3.31;94.68;94761.59;4970982;28;20191;-61
2021/04/06 05:01:40;;;;;;;28.00;18.30;;;;;;;3.40;94.59;94747.94;4971046;28;20298;-62
2021/04/06 05:04:07;;;;;;;23.60;15.60;;;;;;;3.43;94.28;94737.16;4971344;28;20199;-62
2021/04/06 05:06:40;;;;;;;26.63;15.33;;;;;;;3.58;94.36;94741.41;4969850;28;20207;-60
2021/04/06 05:09:07;;;;;;;19.30;11.73;;;;;;;3.80;93.44;94746.91;4970500;28;20294;-62
2021/04/06 05:11:35;;;;;;;16.30;11.03;;;;;;;3.67;93.46;94734.66;4971398;28;20258;-62
2021/04/06 05:14:02;;;;;;;17.40;11.70;;;;;;;3.69;94.51;94739.53;4970760;28;20226;-62
2021/04/06 05:16:31;;;;;;;15.40;9.70;;;;;;;3.86;95.63;94734.78;4971211;28;20305;-61
2021/04/06 05:18:58;;;;;;;17.30;10.50;;;;;;;4.09;95.68;94734.06;4971047;28;20580;-62
2021/04/06 05:21:25;;;;;;;27.23;13.83;;;;;;;4.56;96.21;94737.72;4971221;28;20207;-62
2021/04/06 05:23:54;;;;;;;18.50;13.10;;;;;;;4.63;93.86;94736.34;4970829;28;20258;-62
2021/04/06 05:26:21;;;;;;;17.20;10.87;;;;;;;4.64;92.30;94735.31;4970749;28;20283;-63
2021/04/06 05:28:48;;;;;;;17.97;10.70;;;;;;;4.57;92.66;94734.13;4971117;28;20204;-62
2021/04/06 05:31:15;;;;;;;40.37;19.13;;;;;;;4.76;94.00;94737.50;4970777;28;20642;-62
2021/04/06 05:33:43;;;;;;;45.90;20.53;;;;;;;4.91;94.05;94732.19;4970893;28;20203;-62
2021/04/06 05:36:10;;;;;;;22.93;13.90;;;;;;;5.06;94.06;94731.25;4970800;28;20203;-63
2021/04/06 05:38:38;;;;;;;17.83;12.10;;;;;;;5.28;94.69;94733.28;4970747;28;20207;-61
2021/04/06 05:41:05;;;;;;;22.57;15.60;;;;;;;5.47;93.52;94726.31;4970592;28;20196;-62
2021/04/06 05:43:34;;;;;;;16.23;11.73;;;;;;;5.32;92.27;94729.09;4970564;28;20204;-62
2021/04/06 05:46:02;;;;;;;19.53;12.13;;;;;;;5.54;91.76;94734.44;4970913;28;20195;-62
2021/04/06 05:48:34;;;;;;;24.67;14.43;;;;;;;5.52;90.31;94728.81;4970500;28;20274;-62
2021/04/06 05:51:02;;;;;;;20.23;13.23;;;;;;;5.44;89.14;94724.28;4973751;28;20242;-63
2021/04/06 05:53:29;;;;;;;18.07;11.37;;;;;;;5.61;89.08;94729.72;4974210;28;20711;-62
2021/04/06 05:55:59;;;;;;;34.53;19.50;;;;;;;5.92;88.07;94722.31;4974051;28;20682;-63
2021/04/06 05:58:26;;;;;;;21.23;16.17;;;;;;;6.08;87.76;94730.56;4974522;28;20277;-61
2021/04/06 06:00:53;;;;;;;17.43;12.23;;;;;;;6.16;87.94;94722.94;4973911;28;20193;-62
2021/04/06 06:03:20;;;;;;;31.80;15.33;;;;;;;6.39;87.83;94718.66;4974105;28;20200;-62
2021/04/06 06:05:47;;;;;;;22.30;13.10;;;;;;;6.58;86.97;94716.00;4974069;28;20208;-62
2021/04/06 06:08:17;;;;;;;24.30;14.07;;;;;;;6.73;86.24;94711.31;4973861;28;20196;-62
2021/04/06 06:10:44;;;;;;;24.73;15.57;;;;;;;6.68;85.70;94703.66;4974070;28;20286;-62
2021/04/06 06:13:17;;;;;;;21.60;15.47;;;;;;;6.93;85.29;94705.75;4973889;28;20290;-62
2021/04/06 06:16:08;;;;;;;17.10;11.97;;;;;;;7.22;85.89;94708.00;4973829;28;20192;-64
2021/04/06 06:18:56;;;;;;;15.07;10.33;;;;;;;7.41;83.76;94697.53;4973748;28;20690;-62
2021/04/06 06:21:25;;;;;;;27.17;14.83;;;;;;;7.53;82.09;94697.75;4974239;28;20250;-63
2021/04/06 06:23:53;;;;;;;20.50;10.70;;;;;;;7.86;82.90;94707.88;4973340;28;20224;-62
2021/04/06 06:26:20;;;;;;;17.13;9.10;;;;;;;8.16;83.19;94704.56;4973937;28;20559;-62
2021/04/06 06:29:10;;;;;;;16.67;9.63;;;;;;;8.35;79.09;94701.78;4973863;28;20207;-62
2021/04/06 06:31:43;;;;;;;10.80;7.00;;;;;;;8.58;75.91;94701.41;4969016;28;20195;-62
2021/04/06 06:34:37;;;;;;;10.60;7.50;;;;;;;8.86;73.42;94696.03;4973810;28;20671;-61
2021/04/06 06:37:10;;;;;;;16.17;9.57;;;;;;;8.96;77.88;94695.75;4950347;28;20219;-62
2021/04/06 06:39:39;;;;;;;14.00;9.63;;;;;;;9.08;76.31;94701.09;4973594;28;20199;-61
2021/04/06 06:42:10;;;;;;;11.90;7.93;;;;;;;8.86;76.22;94693.44;4973869;28;20203;-60
2021/04/06 06:44:38;;;;;;;11.77;8.57;;;;;;;9.22;75.40;94693.94;4973559;28;20208;-62
2021/04/06 06:47:10;;;;;;;11.97;8.63;;;;;;;9.28;75.26;94695.31;4973539;28;20192;-61
2021/04/06 06:49:39;;;;;;;8.90;7.00;;;;;;;9.22;76.32;94699.13;4973343;28;20239;-62
2021/04/06 06:52:09;;;;;;;10.47;7.50;;;;;;;9.40;70.37;94695.50;4973300;28;20286;-61
2021/04/06 06:54:46;;;;;;;13.27;8.80;;;;;;;9.39;72.56;94693.97;4973472;28;20224;-63
2021/04/06 06:57:16;;;;;;;14.43;9.27;;;;;;;9.51;71.78;94691.50;4973382;28;20745;-61
2021/04/06 06:59:47;;;;;;;12.77;8.73;;;;;;;9.08;72.67;94675.94;4973266;28;20212;-60
2021/04/06 07:02:24;;;;;;;20.60;10.90;;;;;;;9.19;77.17;94679.00;4972400;28;20199;-62
2021/04/06 07:04:53;;;;;;;18.40;11.00;;;;;;;9.55;78.63;94680.53;4973414;28;20207;-61
2021/04/06 07:07:24;;;;;;;13.70;9.17;;;;;;;9.74;75.35;94671.38;4973593;28;20251;-62
2021/04/06 07:10:03;;;;;;;14.03;8.37;;;;;;;9.85;73.62;94666.63;4973376;28;20238;-62
2021/04/06 07:12:33;;;;;;;11.47;8.83;;;;;;;9.86;72.87;94660.38;4972965;28;20690;-62
2021/04/06 07:15:00;;;;;;;13.63;9.53;;;;;;;10.21;73.28;94667.00;4973038;28;20203;-63
2021/04/06 07:17:29;;;;;;;12.67;8.80;;;;;;;10.06;73.64;94651.16;4972908;28;20577;-62
2021/04/06 07:19:56;;;;;;;30.20;11.23;;;;;;;10.36;73.74;94655.38;4973025;28;20636;-61
2021/04/06 07:22:27;;;;;;;10.83;8.03;;;;;;;10.37;71.03;94651.69;4972541;28;20235;-61
2021/04/06 07:24:57;;;;;;;17.47;11.13;;;;;;;10.40;71.46;94651.06;4972760;28;20844;-62
2021/04/06 07:27:28;;;;;;;40.77;14.63;;;;;;;10.42;70.21;94650.75;4972665;28;20196;-62
2021/04/06 07:29:58;;;;;;;10.53;8.20;;;;;;;10.33;69.13;94654.16;4973001;28;20263;-62
2021/04/06 07:32:28;;;;;;;28.17;9.43;;;;;;;10.44;69.64;94646.00;4973140;28;20219;-62
2021/04/06 07:34:59;;;;;;;13.80;8.43;;;;;;;10.37;71.65;94649.09;4972685;28;20223;-62
2021/04/06 07:37:28;;;;;;;12.90;8.50;;;;;;;10.63;72.51;94641.19;4972531;28;20675;-63
2021/04/06 07:40:02;;;;;;;11.90;7.53;;;;;;;10.88;67.95;94642.88;4972639;28;20196;-62
2021/04/06 07:42:29;;;;;;;11.73;7.33;;;;;;;10.86;67.03;94637.22;4972447;28;20283;-60
2021/04/06 07:44:56;;;;;;;17.57;9.10;;;;;;;10.99;70.64;94644.03;4972659;28;20196;-61
2021/04/06 07:47:36;;;;;;;13.87;8.80;;;;;;;11.19;70.89;94632.88;4972385;28;20200;-60
2021/04/06 07:50:04;;;;;;;12.53;8.67;;;;;;;11.22;71.76;94634.81;4971952;28;20232;-62
2021/04/06 07:52:32;;;;;;;14.63;9.30;;;;;;;11.47;73.49;94627.91;4972574;28;20667;-62
2021/04/06 07:54:59;;;;;;;11.23;8.57;;;;;;;10.95;71.60;94632.75;4972211;28;20283;-64
2021/04/06 07:57:43;;;;;;;10.63;7.80;;;;;;;10.98;69.27;94626.91;4972224;28;20287;-64
2021/04/06 08:00:11;;;;;;;11.77;8.60;;;;;;;11.13;68.82;94620.38;4972170;28;20591;-62
2021/04/06 08:02:45;;;;;;;15.00;8.73;;;;;;;11.07;68.70;94621.63;4972236;28;20201;-64
2021/04/06 08:05:26;;;;;;;16.90;8.73;;;;;;;11.01;70.03;94610.66;4972083;28;20208;-63
2021/04/06 08:07:52;;;;;;;15.40;9.30;;;;;;;11.32;74.75;94597.25;4972017;28;20196;-63
2021/04/06 08:10:48;;;;;;;29.37;11.37;;;;;;;11.76;73.12;94601.00;4972031;28;20278;-60
2021/04/06 08:13:16;;;;;;;12.63;9.10;;;;;;;11.23;68.66;94597.34;4971771;28;20200;-61
2021/04/06 08:15:43;;;;;;;13.57;9.20;;;;;;;11.71;69.13;94595.97;4972065;28;20642;-63
2021/04/06 08:18:14;;;;;;;13.83;8.90;;;;;;;11.18;67.08;94599.38;4972045;28;20196;-63
2021/04/06 08:20:44;;;;;;;17.63;9.83;;;;;;;11.63;68.10;94589.78;4971795;28;20287;-63
2021/04/06 08:23:14;;;;;;;10.60;8.83;;;;;;;11.50;67.19;94595.28;4971632;28;20236;-61
2021/04/06 08:25:53;;;;;;;12.87;9.70;;;;;;;11.46;68.33;94589.19;4971875;28;20299;-62
2021/04/06 08:28:36;;;;;;;14.37;9.30;;;;;;;11.76;67.66;94576.81;4971984;28;20247;-61
2021/04/06 08:31:18;;;;;;;15.97;10.20;;;;;;;12.21;71.46;94577.53;4971822;28;20231;-61
2021/04/06 08:33:46;;;;;;;14.23;9.03;;;;;;;12.45;68.47;94569.72;4971611;28;20199;-62
2021/04/06 08:36:22;;;;;;;15.53;10.03;;;;;;;12.49;68.29;94562.78;4971712;28;20258;-62
2021/04/06 08:38:49;;;;;;;12.70;8.93;;;;;;;12.64;69.58;94550.91;4971901;28;20679;-62
2021/04/06 08:41:32;;;;;;;16.93;9.60;;;;;;;12.83;64.46;94556.31;4971484;28;20282;-63
2021/04/06 08:44:02;;;;;;;12.37;9.50;;;;;;;12.84;68.17;94542.19;4971506;28;20322;-60
2021/04/06 08:46:43;;;;;;;15.37;9.30;;;;;;;13.05;67.32;94542.00;4971513;28;20194;-62
2021/04/06 08:49:15;;;;;;;14.23;9.70;;;;;;;13.04;64.68;94535.28;4971292;28;20353;-62
2021/04/06 08:51:44;;;;;;;13.20;9.80;;;;;;;12.84;64.32;94541.44;4971424;28;20330;-62
2021/04/06 08:54:14;;;;;;;13.53;9.93;;;;;;;12.68;63.49;94536.13;4971527;28;20208;-62
2021/04/06 08:56:44;;;;;;;21.57;9.90;;;;;;;12.75;68.99;94522.56;4971399;28;20741;-62
2021/04/06 08:59:19;;;;;;;13.67;9.23;;;;;;;13.03;65.72;94525.16;4971335;28;20636;-62
2021/04/06 09:01:48;;;;;;;11.53;8.33;;;;;;;13.13;63.41;94532.56;4971546;28;20198;-63
2021/04/06 09:04:18;;;;;;;14.33;8.33;;;;;;;13.04;62.24;94530.06;4971603;28;20203;-63
2021/04/06 09:06:45;;;;;;;31.83;9.27;;;;;;;12.93;64.88;94526.41;4971604;28;20203;-63
2021/04/06 09:09:13;;;;;;;12.97;8.57;;;;;;;13.29;64.46;94523.69;4971215;28;20199;-63
2021/04/06 09:11:42;;;;;;;16.77;8.17;;;;;;;13.03;65.18;94501.69;4970987;28;20240;-62
2021/04/06 09:14:09;;;;;;;12.43;9.07;;;;;;;13.35;67.32;94505.91;4971291;28;20270;-63
2021/04/06 09:16:37;;;;;;;16.13;8.23;;;;;;;13.60;67.80;94496.84;4971408;28;20208;-62
2021/04/06 09:19:07;;;;;;;14.33;7.93;;;;;;;13.54;64.23;94502.69;4971321;28;20226;-62
2021/04/06 09:21:35;;;;;;;13.97;9.10;;;;;;;13.90;69.20;94486.00;4971232;28;20258;-62
2021/04/06 09:24:06;;;;;;;14.97;8.73;;;;;;;14.26;65.20;94480.47;4971135;28;20231;-62
2021/04/06 09:26:34;;;;;;;11.50;7.93;;;;;;;14.21;60.07;94483.34;4974983;28;20675;-62
2021/04/06 09:29:08;;;;;;;13.60;8.50;;;;;;;14.32;65.02;94475.72;4974963;28;20210;-62
2021/04/06 09:31:37;;;;;;;10.73;7.43;;;;;;;14.62;61.84;94476.78;4974937;28;20234;-62
2021/04/06 09:34:07;;;;;;;17.77;9.00;;;;;;;14.83;63.10;94477.19;4974792;28;20203;-63
2021/04/06 09:36:35;;;;;;;12.37;7.67;;;;;;;14.54;59.71;94475.88;4974743;28;20223;-61
2021/04/06 09:39:04;;;;;;;13.90;7.83;;;;;;;14.71;64.62;94466.88;4974960;28;20240;-62
2021/04/06 09:41:36;;;;;;;11.50;7.20;;;;;;;14.33;59.77;94472.03;4974751;28;20196;-63
2021/04/06 09:44:06;;;;;;;11.23;7.43;;;;;;;14.61;59.94;94462.94;4974824;28;20207;-63
2021/04/06 09:46:35;;;;;;;9.67;7.67;;;;;;;14.28;61.06;94456.63;4974917;28;20200;-62
2021/04/06 09:49:04;;;;;;;30.97;9.77;;;;;;;14.81;64.06;94447.25;4974351;28;20232;-63
2021/04/06 09:51:31;;;;;;;11.13;7.30;;;;;;;15.01;56.71;94448.75;4974591;28;20617;-63
2021/04/06 09:53:59;;;;;;;13.80;7.97;;;;;;;15.13;57.03;94448.59;4974484;28;20725;-63
2021/04/06 09:56:27;;;;;;;11.83;7.27;;;;;;;14.81;58.11;94439.41;4974526;28;20231;-63
2021/04/06 09:58:55;;;;;;;9.27;6.90;;;;;;;14.94;59.78;94432.94;4974525;28;20208;-61
2021/04/06 10:01:25;;;;;;;14.13;7.80;;;;;;;15.28;61.46;94436.53;4974347;28;20200;-62
2021/04/06 10:03:55;;;;;;;12.80;7.33;;;;;;;15.43;56.73;94433.03;4974407;28;20196;-61
2021/04/06 10:06:33;;;;;;;14.47;8.10;;;;;;;15.16;54.84;94424.34;4974231;28;20200;-62
2021/04/06 10:09:14;;;;;;;15.73;8.20;;;;;;;14.76;56.70;94406.44;4974473;28;20204;-62
2021/04/06 10:11:41;;;;;;;11.80;8.00;;;;;;;15.11;56.44;94416.03;4974137;28;20234;-62
2021/04/06 10:14:09;;;;;;;15.57;8.00;;;;;;;15.40;62.10;94405.69;4974111;28;20207;-63
2021/04/06 10:16:37;;;;;;;13.10;8.13;;;;;;;15.68;59.56;94404.66;4974334;28;20261;-61
2021/04/06 10:19:18;;;;;;;10.60;7.47;;;;;;;15.87;58.85;94392.22;4974390;28;20211;-62
2021/04/06 10:21:57;;;;;;;11.80;7.93;;;;;;;15.86;59.09;94392.56;4973854;28;20202;-61
2021/04/06 10:24:26;;;;;;;8.47;6.87;;;;;;;15.94;54.26;94383.69;4973848;28;20203;-62
2021/04/06 10:27:17;;;;;;;17.27;6.83;;;;;;;15.72;54.45;94380.03;4974263;28;20686;-63
2021/04/06 10:29:44;;;;;;;11.83;7.00;;;;;;;15.85;54.98;94365.59;4973738;28;20246;-62
2021/04/06 10:32:27;;;;;;;9.40;6.97;;;;;;;15.57;56.10;94364.44;4973831;28;20204;-63
2021/04/06 10:34:57;;;;;;;33.73;9.07;;;;;;;15.59;56.03;94362.25;4973695;28;20195;-63
2021/04/06 10:37:24;;;;;;;16.23;7.63;;;;;;;15.59;55.52;94357.00;4972340;28;20234;-63
2021/04/06 10:39:52;;;;;;;12.90;6.37;;;;;;;15.65;54.83;94345.09;4973671;28;20231;-62
2021/04/06 10:42:20;;;;;;;13.17;6.73;;;;;;;15.71;58.58;94333.22;4973544;28;20232;-64
2021/04/06 10:44:48;;;;;;;10.07;6.07;;;;;;;16.12;55.43;94334.88;4973813;28;20207;-63
2021/04/06 10:47:25;;;;;;;8.87;5.73;;;;;;;16.19;50.15;94321.84;4973412;28;20205;-63
2021/04/06 10:49:58;;;;;;;11.37;5.67;;;;;;;16.23;48.47;94317.44;4973764;28;20226;-63
2021/04/06 10:52:29;;;;;;;35.03;18.67;;;;;;;15.57;50.69;94307.59;4973608;28;20196;-62
2021/04/06 10:54:57;;;;;;;14.43;6.17;;;;;;;15.64;52.64;94304.31;4973766;28;20560;-62
2021/04/06 10:57:29;;;;;;;24.23;8.10;;;;;;;15.96;54.08;94297.63;4973629;28;20586;-62
2021/04/06 10:59:56;;;;;;;18.60;7.77;;;;;;;15.96;54.20;94295.00;4973316;28;20254;-62
2021/04/06 11:02:27;;;;;;;24.27;13.67;;;;;;;15.85;53.10;94281.00;4973334;28;20227;-63
2021/04/06 11:04:53;;;;;;;15.33;6.73;;;;;;;16.08;56.79;94270.44;4973260;28;20207;-63
2021/04/06 11:07:29;;;;;;;10.93;5.90;;;;;;;16.40;51.53;94268.13;4973300;28;20223;-63
2021/04/06 11:10:05;;;;;;;11.07;6.10;;;;;;;16.35;49.90;94261.34;4973040;28;20202;-63
2021/04/06 11:12:32;;;;;;;22.63;10.30;;;;;;;16.26;50.40;94260.88;4973481;28;20741;-62
2021/04/06 11:14:59;;;;;;;46.53;23.30;;;;;;;15.64;50.49;94259.81;4973093;28;20199;-62
2021/04/06 11:17:27;;;;;;;8.13;6.30;;;;;;;15.82;51.42;94251.06;4972968;28;20196;-63
2021/04/06 11:19:57;;;;;;;9.30;5.40;;;;;;;16.08;49.30;94247.63;4973146;28;20659;-64
2021/04/06 11:22:24;;;;;;;12.53;6.33;;;;;;;16.12;50.00;94237.91;4972441;28;20227;-61
2021/04/06 11:24:52;;;;;;;10.30;6.07;;;;;;;16.19;50.14;94232.00;4972811;28;20255;-63
2021/04/06 11:27:20;;;;;;;11.37;5.83;;;;;;;16.35;49.46;94227.28;4972843;28;20199;-63
2021/04/06 11:29:49;;;;;;;11.60;5.63;;;;;;;16.53;47.97;94230.06;4972596;28;20419;-63
2021/04/06 11:32:18;;;;;;;27.33;7.07;;;;;;;16.64;47.26;94223.06;4972582;28;20259;-63
2021/04/06 11:34:46;;;;;;;22.20;7.60;;;;;;;16.73;47.63;94213.03;4972518;28;20540;-63
2021/04/06 11:37:14;;;;;;;11.50;5.40;;;;;;;17.09;46.80;94211.41;4972414;28;20207;-63
2021/04/06 11:39:43;;;;;;;14.07;7.80;;;;;;;17.10;45.70;94213.66;4972338;28;20258;-63
2021/04/06 11:42:12;;;;;;;9.90;5.10;;;;;;;17.21;45.04;94214.50;4972208;28;20774;-61